createdAt,value
2023-04-26T00:01:32.842Z,98294.09
2023-04-26T00:04:03.804Z,98289.59
2023-04-26T00:06:35.450Z,98296.56
2023-04-26T00:09:04.509Z,98298.44
2023-04-26T00:11:34.894Z,98294.69
2023-04-26T00:14:04.459Z,98296.63
2023-04-26T00:16:33.793Z,98305.78
2023-04-26T00:19:02.898Z,98301.28
2023-04-26T00:21:31.866Z,98304.56
2023-04-26T00:24:01.248Z,98309.84
2023-04-26T00:26:31.603Z,98314.38
2023-04-26T00:29:03.603Z,98310.56
2023-04-26T00:31:33.824Z,98307.69
2023-04-26T00:34:03.824Z,98298.59
2023-04-26T00:36:34.049Z,98312.25
2023-04-26T00:39:03.935Z,98304.06
2023-04-26T00:41:32.727Z,98303.25
2023-04-26T00:44:03.889Z,98304.22
2023-04-26T00:46:33.806Z,98306.28
2023-04-26T00:49:04.281Z,98305.22
2023-04-26T00:51:34.374Z,98306.56
2023-04-26T00:54:04.622Z,98305.22
2023-04-26T00:56:34.968Z,98303.31
2023-04-26T00:59:06.171Z,98310.13
2023-04-26T01:01:36.366Z,98300.56
2023-04-26T01:04:06.626Z,98297.34
2023-04-26T01:06:38.582Z,98301.69
2023-04-26T01:09:10.061Z,98299.63
2023-04-26T01:11:39.884Z,98305.75
2023-04-26T01:14:11.883Z,98303.34
2023-04-26T01:16:41.504Z,98296.28
2023-04-26T01:19:13.819Z,98299.81
2023-04-26T01:21:44.160Z,98300.63
2023-04-26T01:24:16.277Z,98302.28
2023-04-26T01:26:47.318Z,98306.91
2023-04-26T01:29:21.381Z,98300.91
2023-04-26T01:31:52.218Z,98307.16
2023-04-26T01:34:22.465Z,98309.78
2023-04-26T01:36:52.416Z,98300.78
2023-04-26T01:39:24.501Z,98303.66
2023-04-26T01:41:55.110Z,98297.81
2023-04-26T01:44:25.124Z,98293.31
2023-04-26T01:46:55.006Z,98296.59
2023-04-26T01:49:24.466Z,98295.78
2023-04-26T01:51:55.047Z,98289.63
2023-04-26T01:54:25.992Z,98290.47
2023-04-26T01:56:55.308Z,98292.09
2023-04-26T01:59:26.367Z,98292.66
2023-04-26T02:01:56.823Z,98285.84
2023-04-26T02:04:26.546Z,98285.72
2023-04-26T02:06:55.442Z,98296.34
2023-04-26T02:09:26.255Z,98287.34
2023-04-26T02:11:56.218Z,98284.34
2023-04-26T02:14:26.327Z,98289.81
2023-04-26T02:16:57.708Z,98288.44
2023-04-26T02:19:28.309Z,98298.34
2023-04-26T02:21:59.515Z,98297.69
2023-04-26T02:24:30.578Z,98300.38
2023-04-26T02:27:04.443Z,98296.31
2023-04-26T02:29:43.134Z,98296.59
2023-04-26T02:32:13.539Z,98293.84
2023-04-26T02:34:43.168Z,98297.13
2023-04-26T02:37:12.510Z,98297.41
2023-04-26T02:39:43.812Z,98302.31
2023-04-26T02:42:13.757Z,98297.41
2023-04-26T02:44:43.345Z,98300.81
2023-04-26T02:47:12.874Z,98305.00
2023-04-26T02:49:43.256Z,98301.75
2023-04-26T02:52:13.261Z,98300.94
2023-04-26T02:54:45.172Z,98300.94
2023-04-26T02:57:14.129Z,98294.94
2023-04-26T02:59:44.429Z,98296.16
2023-04-26T03:02:14.564Z,98288.94
2023-04-26T03:04:44.654Z,98296.03
2023-04-26T03:07:14.727Z,98295.50
2023-04-26T03:09:46.326Z,98297.13
2023-04-26T03:12:16.694Z,98289.91
2023-04-26T03:14:46.082Z,98285.69
2023-04-26T03:17:17.134Z,98285.81
2023-04-26T03:19:46.603Z,98288.00
2023-04-26T03:22:16.889Z,98283.63
2023-04-26T03:24:48.516Z,98284.88
2023-04-26T03:27:19.060Z,98272.50
2023-04-26T03:29:48.112Z,98268.16
2023-04-26T03:32:16.937Z,98269.13
2023-04-26T03:34:49.340Z,98262.19
2023-04-26T03:37:18.827Z,98265.00
2023-04-26T03:39:51.401Z,98264.88
2023-04-26T03:42:21.144Z,98257.00
2023-04-26T03:44:51.095Z,98261.34
2023-04-26T03:47:20.402Z,98267.19
2023-04-26T03:49:50.435Z,98262.56
2023-04-26T03:52:20.486Z,98263.66
2023-04-26T03:54:52.426Z,98269.50
2023-04-26T03:57:21.494Z,98270.59
2023-04-26T03:59:51.504Z,98264.06
2023-04-26T04:02:20.497Z,98266.78
2023-04-26T04:04:51.164Z,98270.16
2023-04-26T04:07:22.350Z,98268.94
2023-04-26T04:09:53.085Z,98264.72
2023-04-26T04:12:23.720Z,98265.13
2023-04-26T04:14:54.494Z,98263.50
2023-04-26T04:17:25.492Z,98269.19
2023-04-26T04:19:55.379Z,98273.41
2023-04-26T04:22:26.011Z,98275.31
2023-04-26T04:24:57.132Z,98274.09
2023-04-26T04:27:26.703Z,98278.56
2023-04-26T04:29:56.744Z,98273.41
2023-04-26T04:32:25.702Z,98280.72
2023-04-26T04:34:55.798Z,98283.06
2023-04-26T04:37:26.297Z,98290.25
2023-04-26T04:39:57.350Z,98287.53
2023-04-26T04:42:27.921Z,98289.97
2023-04-26T04:45:00.049Z,98285.47
2023-04-26T04:47:29.009Z,98294.19
2023-04-26T04:50:00.448Z,98293.50
2023-04-26T04:52:30.335Z,98293.50
2023-04-26T04:55:01.758Z,98296.63
2023-04-26T04:57:33.029Z,98301.25
2023-04-26T05:00:10.594Z,98308.19
2023-04-26T05:02:41.302Z,98306.81
2023-04-26T05:05:11.936Z,98306.94
2023-04-26T05:07:41.536Z,98306.81
2023-04-26T05:10:15.075Z,98308.56
2023-04-26T05:12:45.044Z,98311.84
2023-04-26T05:15:15.608Z,98308.19
2023-04-26T05:17:44.945Z,98316.47
2023-04-26T05:20:15.981Z,98318.94
2023-04-26T05:22:45.156Z,98317.00
2023-04-26T05:25:17.909Z,98315.81
2023-04-26T05:27:48.001Z,98312.56
2023-04-26T05:30:17.957Z,98317.84
2023-04-26T05:32:46.830Z,98325.47
2023-04-26T05:35:16.820Z,98328.72
2023-04-26T05:37:46.977Z,98324.38
2023-04-26T05:40:19.572Z,98330.81
2023-04-26T05:42:49.140Z,98327.25
2023-04-26T05:45:20.214Z,98333.78
2023-04-26T05:47:49.873Z,98326.84
2023-04-26T05:50:20.025Z,98324.16
2023-04-26T05:52:49.582Z,98322.91
2023-04-26T05:55:21.513Z,98329.72
2023-04-26T05:57:51.492Z,98331.38
2023-04-26T06:00:24.145Z,98337.75
2023-04-26T06:02:54.796Z,98335.72
2023-04-26T06:05:25.459Z,98336.44
2023-04-26T06:07:55.951Z,98330.72
2023-04-26T06:10:27.657Z,98325.56
2023-04-26T06:12:57.502Z,98333.59
2023-04-26T06:15:28.398Z,98328.97
2023-04-26T06:17:57.968Z,98331.97
2023-04-26T06:20:28.385Z,98332.09
2023-04-26T06:22:58.429Z,98328.84
2023-04-26T06:25:29.882Z,98321.63
2023-04-26T06:28:00.147Z,98324.63
2023-04-26T06:30:30.642Z,98324.91
2023-04-26T06:33:01.769Z,98332.25
2023-04-26T06:35:32.382Z,98324.31
2023-04-26T06:38:02.713Z,98326.22
2023-04-26T06:40:35.882Z,98331.81
2023-04-26T06:43:05.942Z,98333.03
2023-04-26T06:45:34.960Z,98333.00
2023-04-26T06:48:05.870Z,98336.94
2023-04-26T06:50:39.367Z,98333.53
2023-04-26T06:53:10.673Z,98329.91
2023-04-26T06:55:41.392Z,98323.91
2023-04-26T06:58:11.698Z,98330.28
2023-04-26T07:00:41.820Z,98329.75
2023-04-26T07:03:12.978Z,98324.66
2023-04-26T07:05:41.678Z,98320.22
2023-04-26T07:08:11.873Z,98316.94
2023-04-26T07:10:44.857Z,98313.75
2023-04-26T07:13:16.012Z,98304.31
2023-04-26T07:15:46.255Z,98303.41
2023-04-26T07:18:15.805Z,98299.16
2023-04-26T07:20:45.857Z,98304.38
2023-04-26T07:23:16.289Z,98301.75
2023-04-26T07:25:47.583Z,98295.66
2023-04-26T07:28:18.596Z,98287.16
2023-04-26T07:30:48.201Z,98291.59
2023-04-26T07:33:17.314Z,98288.38
2023-04-26T07:35:47.210Z,98288.59
2023-04-26T07:38:20.150Z,98287.16
2023-04-26T07:40:52.439Z,98290.81
2023-04-26T07:43:23.257Z,98298.03
2023-04-26T07:45:53.089Z,98298.22
2023-04-26T07:48:23.562Z,98289.97
2023-04-26T07:50:53.563Z,98293.75
2023-04-26T07:53:23.411Z,98290.72
2023-04-26T07:55:54.548Z,98291.56
2023-04-26T07:58:24.988Z,98291.75
2023-04-26T08:00:55.221Z,98294.72
2023-04-26T08:03:27.926Z,98299.94
2023-04-26T08:05:59.807Z,98288.78
2023-04-26T08:08:30.136Z,98287.03
2023-04-26T08:11:00.538Z,98286.09
2023-04-26T08:13:30.802Z,98286.97
2023-04-26T08:16:00.400Z,98280.66
2023-04-26T08:18:30.063Z,98276.13
2023-04-26T08:20:59.428Z,98277.63
2023-04-26T08:23:30.499Z,98269.81
2023-04-26T08:26:02.932Z,98279.09
2023-04-26T08:28:32.151Z,98269.53
2023-04-26T08:31:01.647Z,98279.16
2023-04-26T08:33:32.232Z,98276.53
2023-04-26T08:36:02.167Z,98282.56
2023-04-26T08:38:33.219Z,98279.31
2023-04-26T08:41:07.374Z,98278.31
2023-04-26T08:43:39.786Z,98277.50
2023-04-26T08:46:17.495Z,98271.00
2023-04-26T08:49:01.767Z,98268.22
2023-04-26T08:51:33.301Z,98273.56
2023-04-26T08:54:05.439Z,98271.94
2023-04-26T08:56:37.114Z,98274.53
2023-04-26T08:59:06.812Z,98262.66
2023-04-26T09:01:38.869Z,98264.44
2023-04-26T09:04:11.147Z,98260.66
2023-04-26T09:06:42.208Z,98251.53
2023-04-26T09:09:15.345Z,98248.59
2023-04-26T09:12:01.102Z,98251.16
2023-04-26T09:14:31.526Z,98248.69
2023-04-26T09:17:01.733Z,98252.41
2023-04-26T09:19:39.189Z,98251.75
2023-04-26T09:22:09.815Z,98247.63
2023-04-26T09:24:53.212Z,98243.53
2023-04-26T09:27:23.566Z,98250.50
2023-04-26T09:30:06.578Z,98248.81
2023-04-26T09:33:11.993Z,98250.13
2023-04-26T09:35:44.219Z,98246.00
2023-04-26T09:38:15.748Z,98252.69
2023-04-26T09:40:47.678Z,98241.56
2023-04-26T09:43:20.428Z,98236.81
2023-04-26T09:45:52.387Z,98241.16
2023-04-26T09:48:22.945Z,98240.28
2023-04-26T09:50:54.772Z,98236.97
2023-04-26T09:53:33.999Z,98231.88
2023-04-26T09:56:11.074Z,98234.41
2023-04-26T09:58:59.306Z,98228.66
2023-04-26T10:01:31.448Z,98231.19
2023-04-26T10:04:03.296Z,98229.03
2023-04-26T10:06:34.060Z,98225.72
2023-04-26T10:09:06.425Z,98225.09
2023-04-26T10:11:38.904Z,98218.53
2023-04-26T10:14:09.846Z,98218.53
2023-04-26T10:16:41.870Z,98217.25
2023-04-26T10:19:12.017Z,98214.56
2023-04-26T10:21:43.844Z,98207.00
2023-04-26T10:24:13.792Z,98213.13
2023-04-26T10:26:52.209Z,98201.97
2023-04-26T10:29:24.712Z,98208.09
2023-04-26T10:32:12.542Z,98200.56
2023-04-26T10:34:42.051Z,98194.97
2023-04-26T10:37:15.093Z,98188.78
2023-04-26T10:39:45.814Z,98176.50
2023-04-26T10:42:28.029Z,98178.56
2023-04-26T10:45:00.376Z,98179.84
2023-04-26T10:47:34.902Z,98174.88
2023-04-26T10:50:07.458Z,98179.53
2023-04-26T10:52:38.720Z,98173.78
2023-04-26T10:55:10.430Z,98174.47
2023-04-26T10:57:52.594Z,98172.94
2023-04-26T11:00:32.623Z,98176.19
2023-04-26T11:03:07.607Z,98170.06
2023-04-26T11:05:55.997Z,98161.84
2023-04-26T11:08:32.022Z,98163.53
2023-04-26T11:11:11.840Z,98166.44
2023-04-26T11:13:42.962Z,98159.25
2023-04-26T11:16:15.151Z,98165.06
2023-04-26T11:18:46.685Z,98159.47
2023-04-26T11:21:20.270Z,98156.28
2023-04-26T11:23:56.479Z,98147.72
2023-04-26T11:26:34.049Z,98165.28
2023-04-26T11:29:03.577Z,98151.53
2023-04-26T11:31:37.068Z,98149.56
2023-04-26T11:34:06.858Z,98144.94
2023-04-26T11:36:41.451Z,98134.53
2023-04-26T11:39:14.093Z,98127.78
2023-04-26T11:41:43.744Z,98135.84
2023-04-26T11:44:13.269Z,98139.34
2023-04-26T11:46:45.672Z,98136.94
2023-04-26T11:49:16.410Z,98134.53
2023-04-26T11:51:49.769Z,98126.50
2023-04-26T11:54:31.556Z,98129.34
2023-04-26T11:57:03.436Z,98127.00
2023-04-26T11:59:33.002Z,98113.72
2023-04-26T12:02:09.015Z,98116.38
2023-04-26T12:04:40.625Z,98121.50
2023-04-26T12:07:11.636Z,98119.38
2023-04-26T12:09:43.564Z,98113.94
2023-04-26T12:12:14.423Z,98109.75
2023-04-26T12:14:46.054Z,98108.78
2023-04-26T12:17:16.991Z,98115.91
2023-04-26T12:19:51.235Z,98120.38
2023-04-26T12:22:23.623Z,98106.06
2023-04-26T12:25:06.685Z,98108.72
2023-04-26T12:27:36.147Z,98103.25
2023-04-26T12:30:09.432Z,98102.09
2023-04-26T12:32:39.686Z,98106.78
2023-04-26T12:35:11.161Z,98105.00
2023-04-26T12:37:41.172Z,98098.13
2023-04-26T12:40:13.590Z,98096.94
2023-04-26T12:42:42.714Z,98101.00
2023-04-26T12:45:13.013Z,98097.00
2023-04-26T12:47:43.527Z,98095.38
2023-04-26T12:50:14.447Z,98093.16
2023-04-26T12:52:47.562Z,98100.25
2023-04-26T12:55:18.596Z,98105.72
2023-04-26T12:57:48.171Z,98101.91
2023-04-26T13:00:19.477Z,98113.41
2023-04-26T13:02:50.001Z,98110.00
2023-04-26T13:05:18.966Z,98105.34
2023-04-26T13:07:48.018Z,98105.75
2023-04-26T13:10:18.020Z,98102.72
2023-04-26T13:12:48.194Z,98105.56
2023-04-26T13:15:17.960Z,98105.34
2023-04-26T13:17:48.717Z,98112.44
2023-04-26T13:20:18.768Z,98109.00
2023-04-26T13:22:47.772Z,98109.19
2023-04-26T13:25:19.128Z,98099.09
2023-04-26T13:27:48.108Z,98104.34
2023-04-26T13:30:18.130Z,98091.63
2023-04-26T13:32:49.617Z,98093.47
2023-04-26T13:35:19.166Z,98087.84
2023-04-26T13:37:49.322Z,98087.03
2023-04-26T13:40:19.304Z,98094.31
2023-04-26T13:42:49.194Z,98088.66
2023-04-26T13:45:19.389Z,98086.59
2023-04-26T13:47:50.923Z,98089.03
2023-04-26T13:50:20.832Z,98079.75
2023-04-26T13:52:52.573Z,98081.75
2023-04-26T13:55:21.303Z,98080.31
2023-04-26T13:57:51.762Z,98080.31
2023-04-26T14:00:24.753Z,98076.25
2023-04-26T14:02:56.698Z,98079.06
2023-04-26T14:05:26.890Z,98071.75
2023-04-26T14:07:57.202Z,98080.00
2023-04-26T14:10:27.331Z,98081.19
2023-04-26T14:12:56.681Z,98076.72
2023-04-26T14:15:27.529Z,98075.53
2023-04-26T14:17:58.762Z,98063.34
2023-04-26T14:20:28.304Z,98069.16
2023-04-26T14:23:00.192Z,98068.16
2023-04-26T14:25:31.520Z,98069.97
2023-04-26T14:28:03.110Z,98069.78
2023-04-26T14:30:32.843Z,98062.91
2023-04-26T14:33:04.988Z,98068.16
2023-04-26T14:35:34.546Z,98063.91
2023-04-26T14:38:03.764Z,98068.59
2023-04-26T14:40:32.808Z,98060.50
2023-04-26T14:43:02.781Z,98064.13
2023-04-26T14:45:44.088Z,98060.09
2023-04-26T14:48:16.161Z,98062.91
2023-04-26T14:50:45.826Z,98059.59
2023-04-26T14:53:15.789Z,98057.16
2023-04-26T14:55:45.770Z,98054.09
2023-04-26T14:58:16.366Z,98055.53
2023-04-26T15:00:46.278Z,98053.75
2023-04-26T15:03:17.709Z,98052.13
2023-04-26T15:05:47.259Z,98058.41
2023-04-26T15:08:16.491Z,98054.00
2023-04-26T15:10:46.782Z,98054.00
2023-04-26T15:13:16.223Z,98054.41
2023-04-26T15:15:46.992Z,98046.13
2023-04-26T15:18:18.013Z,98049.22
2023-04-26T15:20:48.229Z,98059.53
2023-04-26T15:23:19.181Z,98050.66
2023-04-26T15:25:48.986Z,98050.25
2023-04-26T15:28:18.691Z,98047.78
2023-04-26T15:30:49.083Z,98043.53
2023-04-26T15:33:20.008Z,98043.75
2023-04-26T15:35:52.364Z,98042.72
2023-04-26T15:38:23.087Z,98041.88
2023-04-26T15:40:52.431Z,98040.63
2023-04-26T15:43:22.609Z,98037.78
2023-04-26T15:45:53.099Z,98030.84
2023-04-26T15:48:26.025Z,98035.69
2023-04-26T15:50:56.986Z,98038.25
2023-04-26T15:53:26.991Z,98040.66
2023-04-26T15:55:57.595Z,98039.31
2023-04-26T15:58:27.424Z,98044.91
2023-04-26T16:00:56.631Z,98046.50
2023-04-26T16:03:28.560Z,98045.19
2023-04-26T16:05:58.382Z,98037.31
2023-04-26T16:08:39.253Z,98047.19
2023-04-26T16:11:09.027Z,98037.31
2023-04-26T16:13:39.043Z,98046.44
2023-04-26T16:16:11.272Z,98040.47
2023-04-26T16:18:44.315Z,98031.59
2023-04-26T16:21:14.176Z,98026.53
2023-04-26T16:23:43.464Z,98037.88
2023-04-26T16:26:14.379Z,98037.94
2023-04-26T16:28:42.766Z,98032.84
2023-04-26T16:31:11.820Z,98038.13
2023-04-26T16:33:42.758Z,98040.41
2023-04-26T16:36:12.167Z,98048.13
2023-04-26T16:38:42.372Z,98046.94
2023-04-26T16:41:11.853Z,98041.13
2023-04-26T16:43:41.803Z,98042.50
2023-04-26T16:46:10.872Z,98047.00
2023-04-26T16:48:42.709Z,98043.81
2023-04-26T16:51:13.131Z,98042.41
2023-04-26T16:53:43.490Z,98044.03
2023-04-26T16:56:13.022Z,98040.00
2023-04-26T16:58:42.713Z,98045.66
2023-04-26T17:01:11.915Z,98047.06
2023-04-26T17:03:42.523Z,98049.69
2023-04-26T17:06:13.618Z,98044.41
2023-04-26T17:08:42.984Z,98052.13
2023-04-26T17:11:15.073Z,98053.31
2023-04-26T17:13:44.267Z,98047.66
2023-04-26T17:16:14.551Z,98049.53
2023-04-26T17:18:46.963Z,98046.91
2023-04-26T17:21:15.941Z,98057.03
2023-04-26T17:23:45.319Z,98054.59
2023-04-26T17:26:14.856Z,98057.66
2023-04-26T17:28:43.228Z,98059.88
2023-04-26T17:31:13.166Z,98062.69
2023-04-26T17:33:43.709Z,98062.94
2023-04-26T17:36:14.542Z,98066.75
2023-04-26T17:38:43.782Z,98062.94
2023-04-26T17:41:14.499Z,98070.19
2023-04-26T17:43:44.341Z,98072.25
2023-04-26T17:46:14.795Z,98062.34
2023-04-26T17:48:44.305Z,98071.03
2023-04-26T17:51:15.267Z,98068.41
2023-04-26T17:53:44.347Z,98076.88
2023-04-26T17:56:14.283Z,98082.75
2023-04-26T17:58:44.254Z,98087.81
2023-04-26T18:01:14.449Z,98080.13
2023-04-26T18:03:44.415Z,98074.47
2023-04-26T18:06:16.285Z,98086.44
2023-04-26T18:08:46.086Z,98086.63
2023-04-26T18:11:16.423Z,98087.44
2023-04-26T18:13:45.570Z,98094.09
2023-04-26T18:16:17.516Z,98093.50
2023-04-26T18:18:46.506Z,98092.25
2023-04-26T18:21:17.867Z,98096.69
2023-04-26T18:23:48.435Z,98099.31
2023-04-26T18:26:17.910Z,98104.34
2023-04-26T18:28:47.998Z,98096.28
2023-04-26T18:31:18.236Z,98111.63
2023-04-26T18:33:48.349Z,98119.25
2023-04-26T18:36:19.229Z,98120.47
2023-04-26T18:38:48.656Z,98123.28
2023-04-26T18:41:18.664Z,98127.28
2023-04-26T18:43:47.810Z,98131.72
2023-04-26T18:46:18.641Z,98137.34
2023-04-26T18:48:47.404Z,98129.28
2023-04-26T18:51:17.648Z,98133.09
2023-04-26T18:53:47.493Z,98131.66
2023-04-26T18:56:16.550Z,98137.69
2023-04-26T18:58:47.028Z,98137.66
2023-04-26T19:01:17.656Z,98145.88
2023-04-26T19:03:46.399Z,98140.22
2023-04-26T19:06:17.247Z,98147.25
2023-04-26T19:08:48.428Z,98160.13
2023-04-26T19:11:18.620Z,98158.47
2023-04-26T19:13:47.493Z,98159.44
2023-04-26T19:16:18.712Z,98167.88
2023-04-26T19:18:49.735Z,98174.88
2023-04-26T19:21:20.672Z,98180.06
2023-04-26T19:23:52.250Z,98176.56
2023-04-26T19:26:22.958Z,98173.88
2023-04-26T19:28:52.363Z,98172.84
2023-04-26T19:31:22.547Z,98173.41
2023-04-26T19:33:52.615Z,98179.59
2023-04-26T19:36:22.197Z,98186.94
2023-04-26T19:38:52.238Z,98178.81
2023-04-26T19:41:21.850Z,98181.41
2023-04-26T19:43:51.816Z,98184.41
2023-04-26T19:46:21.736Z,98185.13
2023-04-26T19:48:51.354Z,98184.69
2023-04-26T19:51:20.838Z,98181.84
2023-04-26T19:53:51.621Z,98186.63
2023-04-26T19:56:21.512Z,98183.38
2023-04-26T19:58:50.541Z,98193.06
2023-04-26T20:01:21.364Z,98188.53
2023-04-26T20:03:49.880Z,98189.50
2023-04-26T20:06:19.407Z,98191.28
2023-04-26T20:08:49.174Z,98194.00
2023-04-26T20:11:20.129Z,98188.34
2023-04-26T20:13:50.002Z,98187.91
2023-04-26T20:16:19.039Z,98190.88
2023-04-26T20:18:48.464Z,98192.00
2023-04-26T20:21:18.443Z,98192.97
2023-04-26T20:23:47.406Z,98195.31
2023-04-26T20:26:18.652Z,98195.88
2023-04-26T20:28:50.100Z,98193.81
2023-04-26T20:31:19.715Z,98197.75
2023-04-26T20:33:50.758Z,98199.94
2023-04-26T20:36:20.739Z,98198.03
2023-04-26T20:38:51.678Z,98195.97
2023-04-26T20:41:22.454Z,98203.22
2023-04-26T20:43:53.776Z,98199.47
2023-04-26T20:46:23.549Z,98206.66
2023-04-26T20:48:53.037Z,98205.38
2023-04-26T20:51:22.581Z,98204.09
2023-04-26T20:53:52.563Z,98206.47
2023-04-26T20:56:24.208Z,98215.28
2023-04-26T20:58:54.628Z,98213.03
2023-04-26T21:01:24.587Z,98211.13
2023-04-26T21:03:54.076Z,98208.69
2023-04-26T21:06:23.511Z,98210.84
2023-04-26T21:08:53.033Z,98213.19
2023-04-26T21:11:24.384Z,98211.91
2023-04-26T21:13:54.793Z,98213.84
2023-04-26T21:16:25.277Z,98216.72
2023-04-26T21:18:54.774Z,98213.03
2023-04-26T21:21:26.985Z,98218.59
2023-04-26T21:23:58.180Z,98212.44
2023-04-26T21:26:29.658Z,98219.63
2023-04-26T21:28:58.695Z,98225.66
2023-04-26T21:31:28.780Z,98215.75
2023-04-26T21:33:58.462Z,98218.69
2023-04-26T21:36:28.912Z,98219.91
2023-04-26T21:38:57.847Z,98224.34
2023-04-26T21:41:29.462Z,98220.78
2023-04-26T21:43:59.861Z,98225.00
2023-04-26T21:46:29.427Z,98227.00
2023-04-26T21:48:59.279Z,98227.03
2023-04-26T21:51:28.915Z,98223.13
2023-04-26T21:53:58.817Z,98223.47
2023-04-26T21:56:29.261Z,98231.31
2023-04-26T21:58:59.631Z,98232.47
2023-04-26T22:01:29.651Z,98224.81
2023-04-26T22:03:59.222Z,98232.22
2023-04-26T22:06:30.027Z,98241.63
2023-04-26T22:09:00.047Z,98238.91
2023-04-26T22:11:31.499Z,98246.72
2023-04-26T22:14:01.548Z,98250.34
2023-04-26T22:16:32.545Z,98249.88
2023-04-26T22:19:03.266Z,98256.94
2023-04-26T22:21:33.057Z,98251.72
2023-04-26T22:24:03.758Z,98253.66
2023-04-26T22:26:35.273Z,98260.03
2023-04-26T22:29:05.228Z,98257.56
2023-04-26T22:31:34.803Z,98251.72
2023-04-26T22:34:04.226Z,98252.06
2023-04-26T22:36:34.404Z,98254.34
2023-04-26T22:39:03.887Z,98255.00
2023-04-26T22:41:34.065Z,98263.66
2023-04-26T22:44:04.906Z,98256.34
2023-04-26T22:46:35.565Z,98257.31
2023-04-26T22:49:05.211Z,98256.34
2023-04-26T22:51:35.549Z,98257.69
2023-04-26T22:54:05.466Z,98269.41
2023-04-26T22:56:36.317Z,98271.50
2023-04-26T22:59:05.740Z,98273.63
2023-04-26T23:01:37.313Z,98271.03
2023-04-26T23:04:08.034Z,98267.44
2023-04-26T23:06:38.061Z,98270.53
2023-04-26T23:09:08.378Z,98276.88
2023-04-26T23:11:39.900Z,98279.47
2023-04-26T23:14:08.293Z,98280.63
2023-04-26T23:16:39.140Z,98275.22
2023-04-26T23:19:10.347Z,98275.88
2023-04-26T23:21:39.744Z,98277.16
2023-04-26T23:24:10.106Z,98274.91
2023-04-26T23:26:40.896Z,98278.50
2023-04-26T23:29:09.786Z,98272.13
2023-04-26T23:31:40.447Z,98281.53
2023-04-26T23:34:09.931Z,98276.84
2023-04-26T23:36:39.970Z,98276.50
2023-04-26T23:39:10.475Z,98271.31
2023-04-26T23:41:41.858Z,98277.16
2023-04-26T23:44:10.332Z,98275.03
2023-04-26T23:46:40.865Z,98280.06
2023-04-26T23:49:10.507Z,98274.69
2023-04-26T23:51:40.781Z,98278.88
2023-04-26T23:54:10.302Z,98274.31
2023-04-26T23:56:42.340Z,98275.47
2023-04-26T23:59:11.396Z,98267.00
